createdAt,value
2022-08-25T00:01:53.103Z,8.20
2022-08-25T00:04:21.727Z,8.30
2022-08-25T00:06:49.340Z,7.97
2022-08-25T00:09:21.330Z,8.73
2022-08-25T00:11:49.274Z,7.50
2022-08-25T00:14:25.440Z,8.07
2022-08-25T00:16:52.218Z,8.00
2022-08-25T00:19:29.666Z,7.27
2022-08-25T00:21:56.534Z,8.00
2022-08-25T00:24:24.418Z,8.23
2022-08-25T00:26:54.865Z,7.57
2022-08-25T00:29:22.775Z,8.17
2022-08-25T00:31:49.433Z,8.53
2022-08-25T00:34:20.730Z,8.20
2022-08-25T00:36:47.537Z,8.53
2022-08-25T00:39:14.496Z,8.30
2022-08-25T00:41:43.001Z,8.40
2022-08-25T00:44:12.565Z,8.20
2022-08-25T00:46:43.694Z,7.33
2022-08-25T00:49:20.895Z,7.97
2022-08-25T00:51:58.729Z,7.97
2022-08-25T00:54:47.885Z,7.83
2022-08-25T00:57:18.370Z,8.67
2022-08-25T00:59:49.767Z,8.50
2022-08-25T01:02:16.981Z,8.13
2022-08-25T01:04:48.814Z,7.77
2022-08-25T01:07:19.458Z,8.13
2022-08-25T01:09:49.787Z,7.40
2022-08-25T01:12:16.414Z,7.93
2022-08-25T01:14:46.590Z,7.73
2022-08-25T01:17:14.015Z,8.43
2022-08-25T01:19:40.709Z,8.60
2022-08-25T01:22:07.993Z,8.37
2022-08-25T01:24:44.719Z,7.80
2022-08-25T01:27:11.476Z,8.17
2022-08-25T01:29:39.013Z,7.60
2022-08-25T01:32:08.975Z,7.17
2022-08-25T01:34:38.913Z,7.97
2022-08-25T01:37:05.608Z,7.47
2022-08-25T01:39:33.962Z,9.37
2022-08-25T01:42:06.579Z,7.53
2022-08-25T01:44:35.948Z,7.97
2022-08-25T01:47:04.502Z,8.03
2022-08-25T01:49:31.038Z,9.00
2022-08-25T01:52:05.232Z,7.90
2022-08-25T01:54:31.877Z,8.30
2022-08-25T01:56:59.440Z,7.83
2022-08-25T01:59:27.049Z,7.47
2022-08-25T02:01:59.910Z,7.07
2022-08-25T02:04:32.157Z,9.03
2022-08-25T02:07:00.304Z,7.50
2022-08-25T02:09:26.889Z,7.53
2022-08-25T02:11:54.053Z,8.50
2022-08-25T02:14:20.929Z,7.37
2022-08-25T02:16:50.810Z,7.27
2022-08-25T02:19:19.432Z,7.07
2022-08-25T02:21:46.786Z,7.40
2022-08-25T02:24:14.298Z,7.40
2022-08-25T02:26:41.557Z,8.13
2022-08-25T02:29:09.154Z,7.67
2022-08-25T02:31:36.354Z,7.10
2022-08-25T02:34:04.238Z,7.37
2022-08-25T02:36:32.286Z,7.40
2022-08-25T02:38:59.855Z,7.77
2022-08-25T02:41:31.112Z,7.90
2022-08-25T02:43:59.182Z,6.93
2022-08-25T02:46:25.978Z,7.57
2022-08-25T02:48:53.597Z,7.67
2022-08-25T02:51:22.560Z,7.67
2022-08-25T02:53:49.983Z,8.20
2022-08-25T02:56:18.548Z,6.57
2022-08-25T02:58:46.957Z,7.30
2022-08-25T03:01:15.458Z,7.37
2022-08-25T03:03:45.292Z,7.63
2022-08-25T03:06:14.899Z,7.00
2022-08-25T03:08:42.627Z,7.23
2022-08-25T03:11:10.035Z,7.67
2022-08-25T03:13:37.033Z,6.93
2022-08-25T03:16:05.567Z,7.90
2022-08-25T03:18:41.699Z,7.37
2022-08-25T03:21:10.206Z,7.37
2022-08-25T03:23:36.889Z,7.20
2022-08-25T03:26:22.262Z,6.93
2022-08-25T03:28:48.858Z,7.20
2022-08-25T03:31:15.613Z,7.27
2022-08-25T03:33:42.906Z,7.30
2022-08-25T03:36:11.976Z,6.53
2022-08-25T03:38:39.943Z,6.97
2022-08-25T03:41:15.674Z,8.23
2022-08-25T03:43:43.379Z,8.43
2022-08-25T03:46:20.066Z,7.33
2022-08-25T03:48:46.837Z,7.20
2022-08-25T03:51:19.525Z,7.30
2022-08-25T03:53:46.079Z,6.87
2022-08-25T03:56:13.216Z,8.77
2022-08-25T03:58:39.766Z,6.73
2022-08-25T04:01:06.449Z,7.00
2022-08-25T04:03:33.014Z,8.13
2022-08-25T04:06:04.686Z,7.33
2022-08-25T04:08:31.343Z,6.90
2022-08-25T04:10:58.245Z,7.60
2022-08-25T04:13:24.841Z,7.47
2022-08-25T04:15:51.442Z,6.97
2022-08-25T04:18:17.992Z,9.43
2022-08-25T04:20:46.675Z,7.40
2022-08-25T04:23:13.535Z,7.27
2022-08-25T04:25:44.017Z,7.53
2022-08-25T04:28:12.919Z,7.33
2022-08-25T04:30:43.637Z,6.80
2022-08-25T04:33:10.181Z,6.83
2022-08-25T04:35:36.877Z,7.60
2022-08-25T04:38:05.197Z,7.47
2022-08-25T04:40:32.096Z,7.67
2022-08-25T04:42:59.247Z,6.57
2022-08-25T04:45:25.900Z,7.00
2022-08-25T04:47:54.982Z,7.90
2022-08-25T04:50:21.782Z,6.57
2022-08-25T04:52:49.296Z,7.23
2022-08-25T04:55:16.098Z,7.43
2022-08-25T04:57:43.278Z,6.70
2022-08-25T05:00:10.817Z,7.10
2022-08-25T05:02:37.369Z,6.70
2022-08-25T05:05:04.165Z,6.73
2022-08-25T05:07:30.815Z,7.63
2022-08-25T05:09:57.553Z,6.70
2022-08-25T05:12:24.151Z,9.00
2022-08-25T05:14:53.824Z,7.53
2022-08-25T05:17:20.443Z,7.27
2022-08-25T05:19:49.109Z,6.90
2022-08-25T05:22:15.678Z,7.00
2022-08-25T05:24:42.218Z,7.73
2022-08-25T05:27:08.861Z,7.03
2022-08-25T05:29:35.558Z,7.63
2022-08-25T05:32:02.294Z,7.23
2022-08-25T05:34:30.096Z,6.77
2022-08-25T05:36:59.951Z,7.10
2022-08-25T05:39:27.598Z,7.97
2022-08-25T05:41:54.243Z,7.20
2022-08-25T05:44:21.521Z,6.97
2022-08-25T05:46:48.463Z,7.53
2022-08-25T05:49:15.044Z,7.13
2022-08-25T05:51:41.668Z,7.47
2022-08-25T05:54:08.315Z,7.07
2022-08-25T05:56:34.877Z,6.90
2022-08-25T05:59:03.227Z,7.07
2022-08-25T06:01:51.454Z,7.73
2022-08-25T06:04:19.355Z,9.03
2022-08-25T06:06:45.938Z,7.70
2022-08-25T06:09:12.623Z,7.37
2022-08-25T06:11:40.962Z,7.13
2022-08-25T06:14:09.404Z,7.60
2022-08-25T06:16:36.375Z,8.33
2022-08-25T06:19:03.325Z,7.67
2022-08-25T06:21:30.479Z,7.90
2022-08-25T06:23:57.125Z,13.13
2022-08-25T06:26:23.919Z,8.20
2022-08-25T06:28:53.881Z,6.80
2022-08-25T06:31:22.402Z,7.47
2022-08-25T06:33:50.058Z,8.20
2022-08-25T06:36:17.321Z,7.00
2022-08-25T06:38:43.927Z,7.70
2022-08-25T06:41:10.781Z,8.27
2022-08-25T06:43:45.000Z,8.53
2022-08-25T06:46:21.361Z,7.67
2022-08-25T06:48:48.657Z,7.57
2022-08-25T06:51:17.768Z,7.53
2022-08-25T06:53:46.282Z,7.93
2022-08-25T06:56:13.427Z,7.97
2022-08-25T06:58:40.015Z,8.60
2022-08-25T07:01:23.355Z,8.00
2022-08-25T07:03:57.915Z,8.77
2022-08-25T07:06:26.007Z,8.40
2022-08-25T07:08:52.930Z,8.63
2022-08-25T07:11:21.319Z,9.83
2022-08-25T07:13:48.957Z,8.47
2022-08-25T07:16:16.493Z,8.73
2022-08-25T07:18:44.697Z,8.07
2022-08-25T07:21:12.764Z,9.43
2022-08-25T07:23:40.875Z,9.47
2022-08-25T07:26:36.874Z,9.30
2022-08-25T07:29:11.514Z,12.67
2022-08-25T07:31:38.381Z,10.67
2022-08-25T07:34:25.554Z,11.20
2022-08-25T07:36:53.273Z,10.87
2022-08-25T07:39:22.147Z,11.63
2022-08-25T07:41:51.925Z,10.23
2022-08-25T07:44:21.633Z,8.10
2022-08-25T07:46:50.546Z,8.97
2022-08-25T07:49:23.222Z,9.43
2022-08-25T07:52:05.064Z,11.10
2022-08-25T07:54:35.443Z,10.60
2022-08-25T07:57:06.630Z,10.83
2022-08-25T07:59:39.256Z,10.00
2022-08-25T08:02:17.863Z,9.73
2022-08-25T08:04:49.508Z,10.47
2022-08-25T08:07:23.074Z,11.13
2022-08-25T08:10:00.369Z,10.77
2022-08-25T08:12:39.544Z,10.57
2022-08-25T08:15:10.259Z,11.23
2022-08-25T08:17:37.900Z,10.07
2022-08-25T08:20:08.951Z,10.90
2022-08-25T08:22:41.062Z,10.97
2022-08-25T08:25:10.555Z,12.03
2022-08-25T08:27:37.978Z,10.97
2022-08-25T08:30:06.268Z,10.77
2022-08-25T08:33:05.911Z,10.27
2022-08-25T08:35:19.410Z,9.47
2022-08-25T08:37:46.230Z,10.17
2022-08-25T08:40:19.542Z,10.50
2022-08-25T08:43:18.539Z,10.70
2022-08-25T08:45:50.879Z,10.53
2022-08-25T08:48:43.117Z,10.50
2022-08-25T08:51:24.572Z,10.40
2022-08-25T08:54:18.656Z,10.07
2022-08-25T08:56:48.897Z,9.30
2022-08-25T08:59:30.512Z,9.53
2022-08-25T09:02:03.913Z,9.87
2022-08-25T09:04:40.881Z,10.60
2022-08-25T09:07:14.250Z,9.07
2022-08-25T09:09:43.617Z,8.93
2022-08-25T09:12:48.037Z,12.23
2022-08-25T09:16:03.637Z,10.03
2022-08-25T09:19:05.464Z,9.73
2022-08-25T09:21:50.788Z,9.27
2022-08-25T09:24:25.046Z,9.80
2022-08-25T09:27:21.769Z,9.03
2022-08-25T09:29:55.422Z,9.33
2022-08-25T09:32:24.305Z,9.20
2022-08-25T09:34:59.442Z,9.03
2022-08-25T09:37:26.876Z,8.43
2022-08-25T09:39:55.063Z,8.40
2022-08-25T09:42:50.077Z,8.57
2022-08-25T09:45:17.202Z,8.80
2022-08-25T09:47:45.477Z,9.57
2022-08-25T09:50:20.073Z,9.27
2022-08-25T09:52:46.855Z,9.77
2022-08-25T09:55:30.431Z,9.93
2022-08-25T09:58:00.767Z,8.73
2022-08-25T10:00:33.828Z,8.27
2022-08-25T10:03:05.935Z,9.00
2022-08-25T10:05:36.529Z,8.43
2022-08-25T10:08:14.716Z,8.57
2022-08-25T10:10:54.858Z,9.83
2022-08-25T10:13:33.910Z,9.07
2022-08-25T10:16:20.100Z,9.03
2022-08-25T10:19:05.843Z,7.43
2022-08-25T10:21:33.056Z,7.70
2022-08-25T10:24:05.150Z,8.30
2022-08-25T10:26:42.974Z,9.00
2022-08-25T10:29:51.758Z,8.93
2022-08-25T10:32:18.341Z,9.73
2022-08-25T10:34:51.764Z,10.30
2022-08-25T10:37:28.296Z,9.83
2022-08-25T10:40:16.772Z,10.60
2022-08-25T10:43:07.680Z,9.80
2022-08-25T10:45:45.664Z,9.83
2022-08-25T10:48:36.977Z,11.10
2022-08-25T10:51:28.529Z,10.70
2022-08-25T10:54:15.286Z,9.30
2022-08-25T10:56:53.013Z,9.10
2022-08-25T10:59:35.085Z,8.97
2022-08-25T11:02:21.593Z,10.17
2022-08-25T11:05:02.140Z,9.10
2022-08-25T11:07:45.565Z,9.30
2022-08-25T11:11:08.532Z,9.10
2022-08-25T11:13:42.126Z,9.40
2022-08-25T11:16:18.873Z,9.67
2022-08-25T11:19:18.045Z,9.73
2022-08-25T11:22:13.037Z,13.60
2022-08-25T11:25:03.642Z,9.00
2022-08-25T11:27:55.345Z,9.90
2022-08-25T11:30:22.433Z,11.57
2022-08-25T11:32:54.605Z,9.40
2022-08-25T11:35:35.597Z,9.80
2022-08-25T11:38:17.553Z,10.17
2022-08-25T11:41:10.999Z,10.37
2022-08-25T11:43:47.498Z,9.43
2022-08-25T11:46:27.799Z,9.30
2022-08-25T11:49:41.647Z,12.83
2022-08-25T11:52:34.963Z,11.43
2022-08-25T11:55:23.132Z,10.17
2022-08-25T11:58:30.720Z,9.53
2022-08-25T12:00:59.843Z,10.53
2022-08-25T12:03:32.689Z,9.37
2022-08-25T12:06:17.081Z,10.23
2022-08-25T12:08:54.420Z,10.70
2022-08-25T12:11:54.541Z,9.20
2022-08-25T12:14:24.508Z,9.53
2022-08-25T12:16:54.837Z,12.33
2022-08-25T12:19:28.632Z,10.27
2022-08-25T12:22:19.189Z,14.43
2022-08-25T12:24:54.489Z,13.40
2022-08-25T12:27:40.243Z,11.13
2022-08-25T12:30:21.498Z,12.10
2022-08-25T12:33:20.161Z,11.80
2022-08-25T12:35:57.765Z,11.93
2022-08-25T12:38:35.057Z,11.23
2022-08-25T12:41:10.367Z,11.17
2022-08-25T12:43:49.067Z,11.60
2022-08-25T12:46:22.837Z,12.47
2022-08-25T12:49:29.106Z,16.33
2022-08-25T12:52:04.805Z,15.77
2022-08-25T12:55:05.393Z,14.03
2022-08-25T12:57:40.484Z,11.50
2022-08-25T13:00:21.289Z,12.00
2022-08-25T13:03:06.349Z,11.27
2022-08-25T13:05:43.028Z,11.20
2022-08-25T13:08:47.068Z,11.90
2022-08-25T13:11:24.899Z,11.73
2022-08-25T13:14:03.396Z,11.53
2022-08-25T13:16:30.849Z,11.53
2022-08-25T13:19:01.594Z,12.53
2022-08-25T13:21:31.514Z,11.23
2022-08-25T13:24:01.490Z,11.43
2022-08-25T13:26:37.818Z,10.90
2022-08-25T13:29:20.670Z,10.97
2022-08-25T13:31:57.567Z,10.10
2022-08-25T13:34:34.846Z,12.73
2022-08-25T13:37:31.297Z,11.30
2022-08-25T13:40:18.911Z,10.87
2022-08-25T13:42:54.383Z,10.77
2022-08-25T13:45:25.996Z,11.50
2022-08-25T13:47:56.226Z,11.00
2022-08-25T13:50:26.388Z,12.00
2022-08-25T13:53:13.915Z,11.87
2022-08-25T13:55:52.172Z,13.43
2022-08-25T13:58:44.830Z,11.47
2022-08-25T14:01:22.548Z,12.47
2022-08-25T14:04:33.417Z,13.90
2022-08-25T14:07:10.591Z,11.30
2022-08-25T14:09:57.659Z,10.40
2022-08-25T14:12:46.374Z,11.27
2022-08-25T14:15:20.109Z,12.00
2022-08-25T14:18:04.132Z,12.97
2022-08-25T14:20:34.357Z,10.83
2022-08-25T14:23:19.057Z,13.33
2022-08-25T14:25:50.628Z,13.73
2022-08-25T14:28:26.646Z,8.93
2022-08-25T14:30:58.448Z,9.60
2022-08-25T14:33:29.949Z,9.83
2022-08-25T14:35:59.147Z,9.63
2022-08-25T14:38:25.936Z,12.10
2022-08-25T14:40:53.467Z,14.50
2022-08-25T14:43:23.724Z,9.00
2022-08-25T14:45:51.223Z,10.77
2022-08-25T14:48:26.707Z,10.57
2022-08-25T14:50:55.701Z,11.50
2022-08-25T14:53:22.278Z,8.60
2022-08-25T14:55:53.082Z,9.60
2022-08-25T14:58:26.029Z,12.07
2022-08-25T15:00:54.600Z,10.37
2022-08-25T15:03:30.541Z,9.43
2022-08-25T15:06:00.351Z,8.90
2022-08-25T15:08:47.206Z,8.93
2022-08-25T15:11:14.819Z,11.43
2022-08-25T15:13:43.855Z,8.90
2022-08-25T15:16:22.035Z,8.80
2022-08-25T15:18:56.780Z,11.40
2022-08-25T15:21:23.550Z,9.90
2022-08-25T15:23:53.173Z,9.37
2022-08-25T15:26:25.020Z,9.00
2022-08-25T15:28:53.847Z,9.90
2022-08-25T15:31:24.313Z,12.53
2022-08-25T15:33:51.758Z,11.03
2022-08-25T15:36:24.674Z,15.03
2022-08-25T15:38:51.610Z,8.00
2022-08-25T15:41:27.092Z,9.33
2022-08-25T15:43:55.498Z,12.50
2022-08-25T15:46:24.859Z,11.57
2022-08-25T15:48:51.817Z,14.40
2022-08-25T15:51:19.090Z,11.53
2022-08-25T15:53:46.687Z,9.50
2022-08-25T15:56:16.101Z,14.13
2022-08-25T15:58:54.090Z,10.33
2022-08-25T16:01:23.622Z,13.03
2022-08-25T16:03:52.050Z,11.87
2022-08-25T16:06:19.377Z,15.53
2022-08-25T16:08:46.053Z,12.80
2022-08-25T16:11:18.768Z,14.67
2022-08-25T16:13:49.301Z,15.60
2022-08-25T16:16:19.311Z,12.67
2022-08-25T16:18:46.481Z,11.10
2022-08-25T16:21:17.774Z,13.77
2022-08-25T16:23:45.166Z,11.33
2022-08-25T16:26:13.841Z,11.60
2022-08-25T16:28:43.953Z,12.67
2022-08-25T16:31:13.077Z,14.70
2022-08-25T16:36:15.316Z,13.57
2022-08-25T16:38:43.154Z,13.23
2022-08-25T16:41:22.262Z,12.10
2022-08-25T16:43:50.098Z,11.30
2022-08-25T16:46:19.519Z,13.30
2022-08-25T16:48:46.640Z,10.90
2022-08-25T16:51:19.271Z,11.07
2022-08-25T16:54:08.471Z,12.00
2022-08-25T16:56:37.128Z,11.77
2022-08-25T16:59:04.898Z,12.60
2022-08-25T17:01:36.386Z,18.23
2022-08-25T17:04:04.901Z,12.30
2022-08-25T17:06:37.162Z,13.80
2022-08-25T17:09:07.678Z,10.50
2022-08-25T17:11:36.664Z,13.83
2022-08-25T17:14:06.820Z,13.93
2022-08-25T17:16:40.096Z,14.70
2022-08-25T17:19:16.043Z,22.27
2022-08-25T17:21:45.937Z,10.13
2022-08-25T17:24:15.230Z,11.13
2022-08-25T17:26:43.049Z,11.70
2022-08-25T17:29:11.442Z,13.63
2022-08-25T17:31:39.995Z,14.93
2022-08-25T17:34:10.498Z,14.43
2022-08-25T17:36:41.270Z,11.30
2022-08-25T17:39:10.240Z,14.13
2022-08-25T17:41:37.589Z,12.20
2022-08-25T17:44:05.249Z,13.33
2022-08-25T17:46:32.770Z,9.93
2022-08-25T17:48:59.615Z,12.77
2022-08-25T17:51:31.812Z,10.17
2022-08-25T17:53:59.141Z,12.93
2022-08-25T17:56:27.549Z,17.33
2022-08-25T17:58:56.111Z,13.47
2022-08-25T18:01:29.132Z,14.07
2022-08-25T18:03:59.136Z,12.97
2022-08-25T18:06:29.365Z,11.13
2022-08-25T18:09:00.015Z,17.33
2022-08-25T18:11:30.199Z,11.10
2022-08-25T18:13:57.983Z,12.50
2022-08-25T18:16:26.180Z,12.83
2022-08-25T18:18:55.165Z,12.70
2022-08-25T18:21:25.296Z,18.27
2022-08-25T18:23:57.146Z,16.80
2022-08-25T18:26:25.582Z,17.97
2022-08-25T18:28:52.235Z,18.30
2022-08-25T18:31:19.776Z,26.37
2022-08-25T18:33:46.864Z,20.20
2022-08-25T18:36:14.008Z,19.67
2022-08-25T18:38:59.801Z,26.73
2022-08-25T18:41:34.227Z,30.10
2022-08-25T18:44:00.935Z,26.77
2022-08-25T18:46:27.660Z,22.90
2022-08-25T18:48:55.511Z,104.60
2022-08-25T18:51:23.514Z,202.47
2022-08-25T18:53:51.281Z,272.83
2022-08-25T18:56:22.624Z,316.23
2022-08-25T18:58:49.385Z,575.93
2022-08-25T19:01:18.916Z,541.27
2022-08-25T19:03:45.779Z,364.83
2022-08-25T19:06:12.371Z,307.23
2022-08-25T19:08:41.769Z,304.33
2022-08-25T19:11:09.733Z,282.33
2022-08-25T19:13:37.454Z,232.67
2022-08-25T19:16:20.773Z,248.37
2022-08-25T19:18:48.628Z,268.40
2022-08-25T19:21:15.367Z,229.93
2022-08-25T19:23:42.053Z,192.90
2022-08-25T19:26:16.871Z,169.90
2022-08-25T19:28:45.681Z,152.70
2022-08-25T19:31:15.350Z,138.63
2022-08-25T19:33:45.458Z,128.13
2022-08-25T19:36:14.108Z,112.67
2022-08-25T19:38:45.235Z,104.57
2022-08-25T19:41:14.484Z,92.80
2022-08-25T19:43:55.662Z,76.00
2022-08-25T19:46:23.200Z,69.63
2022-08-25T19:48:50.593Z,74.43
2022-08-25T19:51:19.126Z,58.10
2022-08-25T19:53:46.742Z,52.03
2022-08-25T19:56:20.218Z,56.20
2022-08-25T19:58:46.759Z,52.30
2022-08-25T20:01:14.205Z,46.97
2022-08-25T20:03:44.887Z,45.03
2022-08-25T20:06:11.516Z,37.07
2022-08-25T20:08:43.063Z,39.67
2022-08-25T20:11:10.719Z,37.87
2022-08-25T20:13:37.584Z,33.90
2022-08-25T20:16:05.548Z,34.07
2022-08-25T20:18:32.701Z,33.93
2022-08-25T20:21:00.486Z,26.83
2022-08-25T20:23:46.199Z,37.30
2022-08-25T20:26:12.857Z,25.70
2022-08-25T20:28:42.099Z,22.83
2022-08-25T20:31:09.378Z,26.43
2022-08-25T20:33:36.196Z,28.43
2022-08-25T20:36:04.649Z,23.33
2022-08-25T20:38:31.977Z,25.93
2022-08-25T20:41:01.276Z,21.57
2022-08-25T20:43:29.676Z,21.20
2022-08-25T20:46:01.103Z,21.10
2022-08-25T20:48:28.200Z,18.80
2022-08-25T20:50:57.502Z,18.40
2022-08-25T20:53:25.635Z,21.73
2022-08-25T20:55:52.354Z,16.53
2022-08-25T20:58:18.970Z,17.30
2022-08-25T21:00:46.453Z,18.90
2022-08-25T21:03:13.528Z,16.70
2022-08-25T21:05:41.174Z,19.57
2022-08-25T21:08:08.742Z,17.97
2022-08-25T21:10:35.647Z,13.53
2022-08-25T21:13:02.909Z,12.50
2022-08-25T21:15:29.937Z,17.37
2022-08-25T21:17:56.666Z,16.93
2022-08-25T21:20:25.209Z,14.37
2022-08-25T21:22:53.268Z,14.50
2022-08-25T21:25:21.643Z,15.70
2022-08-25T21:27:49.326Z,17.47
2022-08-25T21:30:17.166Z,19.20
2022-08-25T21:32:52.955Z,12.33
2022-08-25T21:35:20.183Z,15.05
2022-08-25T21:37:46.756Z,13.37
2022-08-25T21:40:20.486Z,13.63
2022-08-25T21:42:47.229Z,11.90
2022-08-25T21:45:14.303Z,13.83
2022-08-25T21:47:42.430Z,14.00
2022-08-25T21:50:11.733Z,15.20
2022-08-25T21:52:38.849Z,15.17
2022-08-25T21:55:08.096Z,14.90
2022-08-25T21:57:42.671Z,13.67
2022-08-25T22:00:11.570Z,15.50
2022-08-25T22:02:38.738Z,15.50
2022-08-25T22:05:09.096Z,15.30
2022-08-25T22:07:40.441Z,10.30
2022-08-25T22:10:09.483Z,15.13
2022-08-25T22:12:43.997Z,11.00
2022-08-25T22:15:12.489Z,12.43
2022-08-25T22:17:40.442Z,10.57
2022-08-25T22:20:08.831Z,13.87
2022-08-25T22:22:36.047Z,13.30
2022-08-25T22:25:03.263Z,11.37
2022-08-25T22:27:31.706Z,12.93
2022-08-25T22:29:58.631Z,16.30
2022-08-25T22:32:25.543Z,11.97
2022-08-25T22:34:52.716Z,12.37
2022-08-25T22:37:19.451Z,11.50
2022-08-25T22:39:46.618Z,11.87
2022-08-25T22:42:13.589Z,11.33
2022-08-25T22:44:42.353Z,9.87
2022-08-25T22:47:09.565Z,12.57
2022-08-25T22:49:39.714Z,14.90
2022-08-25T22:52:07.729Z,9.80
2022-08-25T22:54:40.828Z,13.93
2022-08-25T22:57:07.676Z,13.40
2022-08-25T22:59:34.402Z,14.07
2022-08-25T23:02:01.106Z,10.80
2022-08-25T23:04:27.722Z,10.77
2022-08-25T23:06:54.380Z,9.37
2022-08-25T23:09:21.520Z,12.40
2022-08-25T23:11:48.869Z,9.73
2022-08-25T23:14:18.423Z,10.60
2022-08-25T23:16:45.085Z,10.30
2022-08-25T23:19:13.766Z,12.10
2022-08-25T23:22:00.610Z,10.23
2022-08-25T23:24:29.610Z,10.73
2022-08-25T23:26:59.306Z,8.63
2022-08-25T23:29:27.429Z,10.83
2022-08-25T23:31:54.289Z,9.17
2022-08-25T23:34:21.757Z,10.13
2022-08-25T23:36:48.977Z,11.23
2022-08-25T23:39:15.577Z,11.83
2022-08-25T23:41:42.355Z,8.13
2022-08-25T23:44:11.549Z,9.20
2022-08-25T23:46:39.746Z,10.23
2022-08-25T23:49:08.213Z,9.43
2022-08-25T23:51:38.235Z,8.77
2022-08-25T23:54:09.565Z,10.43
2022-08-25T23:56:44.551Z,10.17
2022-08-25T23:59:19.494Z,10.73
